Zibo, China
Current Conditions -  °F | °C
As of 10:00 PM on Thursday 30 Oct 2014 (Local Time) from ZSJN Reporting Station
Haze Haze  
Wind Chill: 59°   Ceiling: Unl
Heat Index: 59°   Visibility: 1.8mi
Dew Point: 55°   Wind: 4mph
Humidity: 88%   Direction: 60°ENE
Pressure: 30.12"   Gusts: NA
Location:  36.8°N, 118.1°E
Report Text: ZSJN 301400Z 06002MPS 020V110 3000 BR NSC 15/13 Q1020 NOSIG
Loading
Personal Weather Stations






























Interactive Weather Map
Tropical Storm Tracking
New forecast layout! Learn more

10-Day Weather Forecast

Advertisements
Track Severe Weather on mobile